sensor_id;sensor_type;location;lat;lon;timestamp;P1;durP1;ratioP1;P2;durP2;ratioP2
19260;SDS011;9764;48.114;11.670;2023-06-04T00:01:04;4.82;;;4.22;;
19260;SDS011;9764;48.114;11.670;2023-06-04T00:03:42;5.65;;;4.10;;
19260;SDS011;9764;48.114;11.670;2023-06-04T00:06:11;5.82;;;4.30;;
19260;SDS011;9764;48.114;11.670;2023-06-04T00:08:39;4.78;;;4.28;;
19260;SDS011;9764;48.114;11.670;2023-06-04T00:11:07;5.93;;;4.28;;
19260;SDS011;9764;48.114;11.670;2023-06-04T00:13:36;5.15;;;4.65;;
19260;SDS011;9764;48.114;11.670;2023-06-04T00:16:06;4.70;;;4.20;;
19260;SDS011;9764;48.114;11.670;2023-06-04T00:18:34;5.60;;;4.82;;
19260;SDS011;9764;48.114;11.670;2023-06-04T00:21:03;5.40;;;4.10;;
19260;SDS011;9764;48.114;11.670;2023-06-04T00:23:31;5.78;;;4.63;;
19260;SDS011;9764;48.114;11.670;2023-06-04T00:26:00;4.93;;;4.40;;
19260;SDS011;9764;48.114;11.670;2023-06-04T00:28:28;5.50;;;4.57;;
19260;SDS011;9764;48.114;11.670;2023-06-04T00:30:56;5.32;;;4.60;;
19260;SDS011;9764;48.114;11.670;2023-06-04T00:33:26;5.35;;;4.53;;
19260;SDS011;9764;48.114;11.670;2023-06-04T00:35:54;5.07;;;4.53;;
19260;SDS011;9764;48.114;11.670;2023-06-04T00:38:23;4.80;;;4.10;;
19260;SDS011;9764;48.114;11.670;2023-06-04T00:40:51;4.57;;;4.18;;
19260;SDS011;9764;48.114;11.670;2023-06-04T00:43:19;4.60;;;4.20;;
19260;SDS011;9764;48.114;11.670;2023-06-04T00:45:52;6.18;;;4.63;;
19260;SDS011;9764;48.114;11.670;2023-06-04T00:48:20;5.82;;;4.28;;
19260;SDS011;9764;48.114;11.670;2023-06-04T00:50:50;5.93;;;4.80;;
19260;SDS011;9764;48.114;11.670;2023-06-04T00:53:19;5.00;;;4.40;;
19260;SDS011;9764;48.114;11.670;2023-06-04T00:55:48;4.78;;;4.18;;
19260;SDS011;9764;48.114;11.670;2023-06-04T00:58:17;6.05;;;4.38;;
19260;SDS011;9764;48.114;11.670;2023-06-04T01:00:47;5.15;;;4.63;;
19260;SDS011;9764;48.114;11.670;2023-06-04T01:03:17;4.60;;;4.20;;
19260;SDS011;9764;48.114;11.670;2023-06-04T01:05:49;4.80;;;4.35;;
19260;SDS011;9764;48.114;11.670;2023-06-04T01:08:26;7.28;;;4.65;;
19260;SDS011;9764;48.114;11.670;2023-06-04T01:10:55;5.10;;;4.60;;
19260;SDS011;9764;48.114;11.670;2023-06-04T01:13:25;4.82;;;4.32;;
19260;SDS011;9764;48.114;11.670;2023-06-04T01:15:54;6.25;;;5.15;;
19260;SDS011;9764;48.114;11.670;2023-06-04T01:18:26;4.90;;;4.40;;
19260;SDS011;9764;48.114;11.670;2023-06-04T01:20:59;4.53;;;3.97;;
19260;SDS011;9764;48.114;11.670;2023-06-04T01:23:32;5.10;;;4.60;;
19260;SDS011;9764;48.114;11.670;2023-06-04T01:26:05;5.95;;;4.63;;
19260;SDS011;9764;48.114;11.670;2023-06-04T01:28:34;5.13;;;4.63;;
19260;SDS011;9764;48.114;11.670;2023-06-04T01:31:04;4.25;;;3.85;;
19260;SDS011;9764;48.114;11.670;2023-06-04T01:33:34;5.03;;;4.25;;
19260;SDS011;9764;48.114;11.670;2023-06-04T01:36:04;4.57;;;4.15;;
19260;SDS011;9764;48.114;11.670;2023-06-04T01:38:37;5.82;;;4.38;;
19260;SDS011;9764;48.114;11.670;2023-06-04T01:41:05;4.85;;;4.18;;
19260;SDS011;9764;48.114;11.670;2023-06-04T01:43:34;4.57;;;4.13;;
19260;SDS011;9764;48.114;11.670;2023-06-04T01:46:02;6.25;;;4.50;;
19260;SDS011;9764;48.114;11.670;2023-06-04T01:48:31;4.95;;;4.45;;
19260;SDS011;9764;48.114;11.670;2023-06-04T01:50:59;5.55;;;4.55;;
19260;SDS011;9764;48.114;11.670;2023-06-04T01:53:30;4.97;;;4.47;;
19260;SDS011;9764;48.114;11.670;2023-06-04T01:55:58;5.75;;;4.55;;
19260;SDS011;9764;48.114;11.670;2023-06-04T01:58:27;4.60;;;4.20;;
19260;SDS011;9764;48.114;11.670;2023-06-04T02:00:58;6.07;;;4.50;;
19260;SDS011;9764;48.114;11.670;2023-06-04T02:03:29;6.05;;;4.30;;
19260;SDS011;9764;48.114;11.670;2023-06-04T02:06:03;4.80;;;4.30;;
19260;SDS011;9764;48.114;11.670;2023-06-04T02:08:35;4.53;;;4.07;;
19260;SDS011;9764;48.114;11.670;2023-06-04T02:11:05;6.47;;;4.50;;
19260;SDS011;9764;48.114;11.670;2023-06-04T02:13:34;5.50;;;4.28;;
19260;SDS011;9764;48.114;11.670;2023-06-04T02:16:02;4.53;;;4.10;;
19260;SDS011;9764;48.114;11.670;2023-06-04T02:18:31;5.18;;;4.28;;
19260;SDS011;9764;48.114;11.670;2023-06-04T02:20:59;4.63;;;4.15;;
19260;SDS011;9764;48.114;11.670;2023-06-04T02:23:27;4.72;;;4.32;;
19260;SDS011;9764;48.114;11.670;2023-06-04T02:25:57;5.05;;;4.55;;
19260;SDS011;9764;48.114;11.670;2023-06-04T02:28:25;5.97;;;4.22;;
19260;SDS011;9764;48.114;11.670;2023-06-04T02:30:54;4.38;;;3.97;;
19260;SDS011;9764;48.114;11.670;2023-06-04T02:33:23;4.60;;;4.20;;
19260;SDS011;9764;48.114;11.670;2023-06-04T02:35:51;5.38;;;4.60;;
19260;SDS011;9764;48.114;11.670;2023-06-04T02:38:19;4.63;;;4.00;;
19260;SDS011;9764;48.114;11.670;2023-06-04T02:40:48;5.80;;;4.78;;
19260;SDS011;9764;48.114;11.670;2023-06-04T02:43:17;5.13;;;4.35;;
19260;SDS011;9764;48.114;11.670;2023-06-04T02:45:46;6.40;;;4.60;;
19260;SDS011;9764;48.114;11.670;2023-06-04T02:48:15;6.75;;;4.18;;
19260;SDS011;9764;48.114;11.670;2023-06-04T02:50:43;5.22;;;4.45;;
19260;SDS011;9764;48.114;11.670;2023-06-04T02:53:12;5.82;;;4.47;;
19260;SDS011;9764;48.114;11.670;2023-06-04T02:55:40;6.05;;;4.60;;
19260;SDS011;9764;48.114;11.670;2023-06-04T02:58:09;4.90;;;4.40;;
19260;SDS011;9764;48.114;11.670;2023-06-04T03:00:39;5.68;;;4.70;;
19260;SDS011;9764;48.114;11.670;2023-06-04T03:03:08;4.78;;;4.20;;
19260;SDS011;9764;48.114;11.670;2023-06-04T03:05:36;5.25;;;4.38;;
19260;SDS011;9764;48.114;11.670;2023-06-04T03:08:06;6.30;;;4.75;;
19260;SDS011;9764;48.114;11.670;2023-06-04T03:10:34;4.90;;;4.40;;
19260;SDS011;9764;48.114;11.670;2023-06-04T03:13:03;4.55;;;4.15;;
19260;SDS011;9764;48.114;11.670;2023-06-04T03:15:31;4.82;;;4.40;;
19260;SDS011;9764;48.114;11.670;2023-06-04T03:18:01;4.63;;;4.22;;
19260;SDS011;9764;48.114;11.670;2023-06-04T03:20:29;6.13;;;4.65;;
19260;SDS011;9764;48.114;11.670;2023-06-04T03:23:05;5.65;;;4.22;;
19260;SDS011;9764;48.114;11.670;2023-06-04T03:25:33;5.28;;;4.78;;
19260;SDS011;9764;48.114;11.670;2023-06-04T03:28:02;5.45;;;4.95;;
19260;SDS011;9764;48.114;11.670;2023-06-04T03:30:32;5.18;;;4.68;;
19260;SDS011;9764;48.114;11.670;2023-06-04T03:33:04;5.18;;;4.45;;
19260;SDS011;9764;48.114;11.670;2023-06-04T03:35:32;4.80;;;4.40;;
19260;SDS011;9764;48.114;11.670;2023-06-04T03:38:01;5.03;;;4.35;;
19260;SDS011;9764;48.114;11.670;2023-06-04T03:40:31;6.93;;;4.53;;
19260;SDS011;9764;48.114;11.670;2023-06-04T03:42:59;4.90;;;4.40;;
19260;SDS011;9764;48.114;11.670;2023-06-04T03:45:31;5.40;;;4.88;;
19260;SDS011;9764;48.114;11.670;2023-06-04T03:48:00;4.97;;;4.38;;
19260;SDS011;9764;48.114;11.670;2023-06-04T03:50:31;6.50;;;4.40;;
19260;SDS011;9764;48.114;11.670;2023-06-04T03:53:00;6.90;;;4.50;;
19260;SDS011;9764;48.114;11.670;2023-06-04T03:55:29;6.22;;;4.90;;
19260;SDS011;9764;48.114;11.670;2023-06-04T03:57:59;5.78;;;4.82;;
19260;SDS011;9764;48.114;11.670;2023-06-04T04:00:28;6.28;;;4.57;;
19260;SDS011;9764;48.114;11.670;2023-06-04T04:03:00;5.88;;;4.97;;
19260;SDS011;9764;48.114;11.670;2023-06-04T04:05:31;5.15;;;4.55;;
19260;SDS011;9764;48.114;11.670;2023-06-04T04:08:00;6.32;;;5.55;;
19260;SDS011;9764;48.114;11.670;2023-06-04T04:10:31;5.20;;;4.63;;
19260;SDS011;9764;48.114;11.670;2023-06-04T04:13:02;5.80;;;4.63;;
19260;SDS011;9764;48.114;11.670;2023-06-04T04:15:33;5.10;;;4.60;;
19260;SDS011;9764;48.114;11.670;2023-06-04T04:18:03;5.40;;;4.90;;
19260;SDS011;9764;48.114;11.670;2023-06-04T04:20:36;8.10;;;5.13;;
19260;SDS011;9764;48.114;11.670;2023-06-04T04:23:08;5.20;;;4.55;;
19260;SDS011;9764;48.114;11.670;2023-06-04T04:25:39;7.78;;;4.97;;
19260;SDS011;9764;48.114;11.670;2023-06-04T04:28:07;5.85;;;5.18;;
19260;SDS011;9764;48.114;11.670;2023-06-04T04:30:37;5.75;;;5.00;;
19260;SDS011;9764;48.114;11.670;2023-06-04T04:33:08;6.63;;;4.97;;
19260;SDS011;9764;48.114;11.670;2023-06-04T04:35:44;5.00;;;4.50;;
19260;SDS011;9764;48.114;11.670;2023-06-04T04:38:15;5.55;;;4.85;;
19260;SDS011;9764;48.114;11.670;2023-06-04T04:40:50;6.10;;;4.78;;
19260;SDS011;9764;48.114;11.670;2023-06-04T04:43:29;5.68;;;4.88;;
19260;SDS011;9764;48.114;11.670;2023-06-04T04:46:04;7.72;;;4.65;;
19260;SDS011;9764;48.114;11.670;2023-06-04T04:48:32;5.25;;;4.75;;
19260;SDS011;9764;48.114;11.670;2023-06-04T04:51:02;5.95;;;5.32;;
19260;SDS011;9764;48.114;11.670;2023-06-04T04:53:31;7.22;;;5.30;;
19260;SDS011;9764;48.114;11.670;2023-06-04T04:56:00;5.72;;;5.13;;
19260;SDS011;9764;48.114;11.670;2023-06-04T04:58:30;8.00;;;4.97;;
19260;SDS011;9764;48.114;11.670;2023-06-04T05:00:59;5.60;;;5.03;;
19260;SDS011;9764;48.114;11.670;2023-06-04T05:03:27;5.40;;;4.90;;
19260;SDS011;9764;48.114;11.670;2023-06-04T05:05:56;7.03;;;5.07;;
19260;SDS011;9764;48.114;11.670;2023-06-04T05:08:25;9.65;;;4.95;;
19260;SDS011;9764;48.114;11.670;2023-06-04T05:10:54;6.07;;;4.78;;
19260;SDS011;9764;48.114;11.670;2023-06-04T05:13:22;4.85;;;4.35;;
19260;SDS011;9764;48.114;11.670;2023-06-04T05:15:56;5.60;;;4.82;;
19260;SDS011;9764;48.114;11.670;2023-06-04T05:18:28;7.38;;;5.10;;
19260;SDS011;9764;48.114;11.670;2023-06-04T05:21:00;6.72;;;5.07;;
19260;SDS011;9764;48.114;11.670;2023-06-04T05:23:33;5.28;;;4.75;;
19260;SDS011;9764;48.114;11.670;2023-06-04T05:26:04;6.93;;;5.30;;
19260;SDS011;9764;48.114;11.670;2023-06-04T05:28:33;4.78;;;4.38;;
19260;SDS011;9764;48.114;11.670;2023-06-04T05:31:02;4.93;;;4.47;;
19260;SDS011;9764;48.114;11.670;2023-06-04T05:33:33;5.65;;;4.53;;
19260;SDS011;9764;48.114;11.670;2023-06-04T05:36:06;6.72;;;5.53;;
19260;SDS011;9764;48.114;11.670;2023-06-04T05:38:42;5.07;;;4.55;;
19260;SDS011;9764;48.114;11.670;2023-06-04T05:41:13;5.10;;;4.55;;
19260;SDS011;9764;48.114;11.670;2023-06-04T05:43:42;5.60;;;4.78;;
19260;SDS011;9764;48.114;11.670;2023-06-04T05:46:14;7.65;;;4.88;;
19260;SDS011;9764;48.114;11.670;2023-06-04T05:48:43;5.43;;;4.63;;
19260;SDS011;9764;48.114;11.670;2023-06-04T05:51:12;5.80;;;4.60;;
19260;SDS011;9764;48.114;11.670;2023-06-04T05:53:43;4.93;;;4.43;;
19260;SDS011;9764;48.114;11.670;2023-06-04T05:56:11;6.20;;;4.63;;
19260;SDS011;9764;48.114;11.670;2023-06-04T05:58:40;5.53;;;4.55;;
19260;SDS011;9764;48.114;11.670;2023-06-04T06:01:10;7.13;;;4.80;;
19260;SDS011;9764;48.114;11.670;2023-06-04T06:03:39;6.72;;;4.63;;
19260;SDS011;9764;48.114;11.670;2023-06-04T06:06:07;6.68;;;4.78;;
19260;SDS011;9764;48.114;11.670;2023-06-04T06:08:37;4.40;;;4.00;;
19260;SDS011;9764;48.114;11.670;2023-06-04T06:11:07;5.82;;;4.47;;
19260;SDS011;9764;48.114;11.670;2023-06-04T06:13:37;4.90;;;4.40;;
19260;SDS011;9764;48.114;11.670;2023-06-04T06:16:07;5.15;;;4.30;;
19260;SDS011;9764;48.114;11.670;2023-06-04T06:18:36;5.30;;;4.35;;
19260;SDS011;9764;48.114;11.670;2023-06-04T06:21:04;6.93;;;4.93;;
19260;SDS011;9764;48.114;11.670;2023-06-04T06:23:33;6.15;;;4.40;;
19260;SDS011;9764;48.114;11.670;2023-06-04T06:26:02;5.22;;;4.25;;
19260;SDS011;9764;48.114;11.670;2023-06-04T06:28:41;5.43;;;4.38;;
19260;SDS011;9764;48.114;11.670;2023-06-04T06:31:10;4.53;;;3.80;;
19260;SDS011;9764;48.114;11.670;2023-06-04T06:33:39;6.13;;;4.43;;
19260;SDS011;9764;48.114;11.670;2023-06-04T06:36:09;5.15;;;4.22;;
19260;SDS011;9764;48.114;11.670;2023-06-04T06:38:39;4.78;;;3.55;;
19260;SDS011;9764;48.114;11.670;2023-06-04T06:41:07;6.82;;;4.10;;
19260;SDS011;9764;48.114;11.670;2023-06-04T06:43:36;4.82;;;4.03;;
19260;SDS011;9764;48.114;11.670;2023-06-04T06:46:05;3.90;;;3.50;;
19260;SDS011;9764;48.114;11.670;2023-06-04T06:48:34;5.63;;;4.10;;
19260;SDS011;9764;48.114;11.670;2023-06-04T06:51:03;3.97;;;3.35;;
19260;SDS011;9764;48.114;11.670;2023-06-04T06:53:32;3.88;;;3.35;;
19260;SDS011;9764;48.114;11.670;2023-06-04T06:56:00;4.65;;;3.20;;
19260;SDS011;9764;48.114;11.670;2023-06-04T06:58:28;4.72;;;2.90;;
19260;SDS011;9764;48.114;11.670;2023-06-04T07:00:56;4.20;;;2.78;;
19260;SDS011;9764;48.114;11.670;2023-06-04T07:03:27;5.13;;;3.65;;
19260;SDS011;9764;48.114;11.670;2023-06-04T07:05:56;5.30;;;2.80;;
19260;SDS011;9764;48.114;11.670;2023-06-04T07:08:24;4.82;;;3.00;;
19260;SDS011;9764;48.114;11.670;2023-06-04T07:10:52;3.70;;;3.25;;
19260;SDS011;9764;48.114;11.670;2023-06-04T07:13:21;4.00;;;2.90;;
19260;SDS011;9764;48.114;11.670;2023-06-04T07:15:49;5.57;;;3.17;;
19260;SDS011;9764;48.114;11.670;2023-06-04T07:18:17;3.33;;;3.03;;
19260;SDS011;9764;48.114;11.670;2023-06-04T07:20:47;6.00;;;3.60;;
19260;SDS011;9764;48.114;11.670;2023-06-04T07:23:16;3.40;;;2.67;;
19260;SDS011;9764;48.114;11.670;2023-06-04T07:25:44;5.35;;;3.30;;
19260;SDS011;9764;48.114;11.670;2023-06-04T07:28:13;3.88;;;3.00;;
19260;SDS011;9764;48.114;11.670;2023-06-04T07:30:42;4.25;;;2.90;;
19260;SDS011;9764;48.114;11.670;2023-06-04T07:33:12;3.28;;;2.70;;
19260;SDS011;9764;48.114;11.670;2023-06-04T07:35:40;4.05;;;2.92;;
19260;SDS011;9764;48.114;11.670;2023-06-04T07:38:10;3.10;;;2.58;;
19260;SDS011;9764;48.114;11.670;2023-06-04T07:40:38;4.55;;;2.67;;
19260;SDS011;9764;48.114;11.670;2023-06-04T07:43:07;4.80;;;2.80;;
19260;SDS011;9764;48.114;11.670;2023-06-04T07:45:35;7.82;;;2.72;;
19260;SDS011;9764;48.114;11.670;2023-06-04T07:48:03;4.30;;;2.83;;
19260;SDS011;9764;48.114;11.670;2023-06-04T07:50:32;4.22;;;2.90;;
19260;SDS011;9764;48.114;11.670;2023-06-04T07:53:03;3.53;;;2.50;;
19260;SDS011;9764;48.114;11.670;2023-06-04T07:55:34;3.83;;;2.92;;
19260;SDS011;9764;48.114;11.670;2023-06-04T07:58:02;3.20;;;2.90;;
19260;SDS011;9764;48.114;11.670;2023-06-04T08:00:32;3.47;;;2.50;;
19260;SDS011;9764;48.114;11.670;2023-06-04T08:03:01;3.22;;;2.65;;
19260;SDS011;9764;48.114;11.670;2023-06-04T08:05:29;3.95;;;2.63;;
19260;SDS011;9764;48.114;11.670;2023-06-04T08:07:58;4.00;;;2.33;;
19260;SDS011;9764;48.114;11.670;2023-06-04T08:10:26;2.83;;;2.53;;
19260;SDS011;9764;48.114;11.670;2023-06-04T08:12:56;3.58;;;2.80;;
19260;SDS011;9764;48.114;11.670;2023-06-04T08:15:24;6.65;;;2.47;;
19260;SDS011;9764;48.114;11.670;2023-06-04T08:18:12;4.00;;;2.60;;
19260;SDS011;9764;48.114;11.670;2023-06-04T08:20:56;3.85;;;2.35;;
19260;SDS011;9764;48.114;11.670;2023-06-04T08:23:40;3.95;;;2.45;;
19260;SDS011;9764;48.114;11.670;2023-06-04T08:26:29;2.60;;;2.40;;
19260;SDS011;9764;48.114;11.670;2023-06-04T08:29:09;3.08;;;2.60;;
19260;SDS011;9764;48.114;11.670;2023-06-04T08:31:45;3.63;;;2.35;;
19260;SDS011;9764;48.114;11.670;2023-06-04T08:34:24;5.00;;;2.47;;
19260;SDS011;9764;48.114;11.670;2023-06-04T08:36:53;2.83;;;2.38;;
19260;SDS011;9764;48.114;11.670;2023-06-04T08:39:21;3.38;;;2.38;;
19260;SDS011;9764;48.114;11.670;2023-06-04T08:41:51;3.58;;;2.55;;
19260;SDS011;9764;48.114;11.670;2023-06-04T08:44:22;2.80;;;2.50;;
19260;SDS011;9764;48.114;11.670;2023-06-04T08:46:51;3.17;;;2.25;;
19260;SDS011;9764;48.114;11.670;2023-06-04T08:49:21;4.35;;;2.20;;
19260;SDS011;9764;48.114;11.670;2023-06-04T08:51:52;4.05;;;2.35;;
19260;SDS011;9764;48.114;11.670;2023-06-04T08:54:20;2.58;;;2.30;;
19260;SDS011;9764;48.114;11.670;2023-06-04T08:56:48;2.72;;;2.33;;
19260;SDS011;9764;48.114;11.670;2023-06-04T08:59:18;4.68;;;2.00;;
19260;SDS011;9764;48.114;11.670;2023-06-04T09:01:48;3.58;;;2.17;;
19260;SDS011;9764;48.114;11.670;2023-06-04T09:04:20;3.38;;;2.40;;
19260;SDS011;9764;48.114;11.670;2023-06-04T09:06:48;2.58;;;2.30;;
19260;SDS011;9764;48.114;11.670;2023-06-04T09:09:17;2.42;;;1.80;;
19260;SDS011;9764;48.114;11.670;2023-06-04T09:11:49;4.47;;;2.63;;
19260;SDS011;9764;48.114;11.670;2023-06-04T09:14:19;3.67;;;2.45;;
19260;SDS011;9764;48.114;11.670;2023-06-04T09:16:49;4.07;;;2.60;;
19260;SDS011;9764;48.114;11.670;2023-06-04T09:19:20;3.17;;;2.47;;
19260;SDS011;9764;48.114;11.670;2023-06-04T09:21:49;3.03;;;2.38;;
19260;SDS011;9764;48.114;11.670;2023-06-04T09:24:19;2.50;;;2.17;;
19260;SDS011;9764;48.114;11.670;2023-06-04T09:26:48;2.58;;;2.15;;
19260;SDS011;9764;48.114;11.670;2023-06-04T09:29:17;2.67;;;2.38;;
19260;SDS011;9764;48.114;11.670;2023-06-04T09:31:46;3.80;;;2.33;;
19260;SDS011;9764;48.114;11.670;2023-06-04T09:34:26;3.15;;;2.35;;
19260;SDS011;9764;48.114;11.670;2023-06-04T09:36:55;4.05;;;2.33;;
19260;SDS011;9764;48.114;11.670;2023-06-04T09:39:24;3.30;;;2.35;;
19260;SDS011;9764;48.114;11.670;2023-06-04T09:41:59;2.65;;;2.22;;
19260;SDS011;9764;48.114;11.670;2023-06-04T09:44:28;3.25;;;2.30;;
19260;SDS011;9764;48.114;11.670;2023-06-04T09:46:58;3.65;;;2.58;;
19260;SDS011;9764;48.114;11.670;2023-06-04T09:49:27;3.35;;;1.95;;
19260;SDS011;9764;48.114;11.670;2023-06-04T09:51:55;4.07;;;2.60;;
19260;SDS011;9764;48.114;11.670;2023-06-04T09:54:24;3.97;;;2.38;;
19260;SDS011;9764;48.114;11.670;2023-06-04T09:57:03;4.00;;;2.47;;
19260;SDS011;9764;48.114;11.670;2023-06-04T09:59:32;3.35;;;2.25;;
19260;SDS011;9764;48.114;11.670;2023-06-04T10:02:08;4.32;;;2.33;;
19260;SDS011;9764;48.114;11.670;2023-06-04T10:04:39;3.65;;;2.65;;
19260;SDS011;9764;48.114;11.670;2023-06-04T10:07:10;2.95;;;2.58;;
19260;SDS011;9764;48.114;11.670;2023-06-04T10:09:39;2.85;;;2.38;;
19260;SDS011;9764;48.114;11.670;2023-06-04T10:12:13;2.85;;;2.40;;
19260;SDS011;9764;48.114;11.670;2023-06-04T10:14:44;2.53;;;2.15;;
19260;SDS011;9764;48.114;11.670;2023-06-04T10:17:23;3.03;;;2.38;;
19260;SDS011;9764;48.114;11.670;2023-06-04T10:19:53;3.10;;;2.63;;
19260;SDS011;9764;48.114;11.670;2023-06-04T10:22:23;2.72;;;2.22;;
19260;SDS011;9764;48.114;11.670;2023-06-04T10:24:52;3.22;;;2.33;;
19260;SDS011;9764;48.114;11.670;2023-06-04T10:27:20;3.17;;;2.47;;
19260;SDS011;9764;48.114;11.670;2023-06-04T10:29:50;3.78;;;2.47;;
19260;SDS011;9764;48.114;11.670;2023-06-04T10:32:19;2.92;;;2.63;;
19260;SDS011;9764;48.114;11.670;2023-06-04T10:34:49;4.25;;;2.28;;
19260;SDS011;9764;48.114;11.670;2023-06-04T10:37:20;4.20;;;2.88;;
19260;SDS011;9764;48.114;11.670;2023-06-04T10:39:52;5.43;;;2.60;;
19260;SDS011;9764;48.114;11.670;2023-06-04T10:42:22;4.30;;;2.58;;
19260;SDS011;9764;48.114;11.670;2023-06-04T10:44:51;4.53;;;2.58;;
19260;SDS011;9764;48.114;11.670;2023-06-04T10:47:24;3.97;;;2.80;;
19260;SDS011;9764;48.114;11.670;2023-06-04T10:49:54;4.60;;;3.20;;
19260;SDS011;9764;48.114;11.670;2023-06-04T10:52:34;4.32;;;2.67;;
19260;SDS011;9764;48.114;11.670;2023-06-04T10:55:03;4.80;;;2.42;;
19260;SDS011;9764;48.114;11.670;2023-06-04T10:57:33;4.55;;;2.60;;
19260;SDS011;9764;48.114;11.670;2023-06-04T11:00:01;3.67;;;2.40;;
19260;SDS011;9764;48.114;11.670;2023-06-04T11:02:32;3.58;;;2.70;;
19260;SDS011;9764;48.114;11.670;2023-06-04T11:05:02;5.50;;;3.20;;
19260;SDS011;9764;48.114;11.670;2023-06-04T11:07:42;3.47;;;2.83;;
19260;SDS011;9764;48.114;11.670;2023-06-04T11:10:11;3.17;;;2.88;;
19260;SDS011;9764;48.114;11.670;2023-06-04T11:12:41;4.07;;;2.88;;
19260;SDS011;9764;48.114;11.670;2023-06-04T11:15:10;3.25;;;2.67;;
19260;SDS011;9764;48.114;11.670;2023-06-04T11:17:48;3.45;;;2.63;;
19260;SDS011;9764;48.114;11.670;2023-06-04T11:20:19;3.00;;;2.70;;
19260;SDS011;9764;48.114;11.670;2023-06-04T11:22:52;3.28;;;2.58;;
19260;SDS011;9764;48.114;11.670;2023-06-04T11:25:23;3.03;;;2.72;;
19260;SDS011;9764;48.114;11.670;2023-06-04T11:27:53;3.35;;;3.05;;
19260;SDS011;9764;48.114;11.670;2023-06-04T11:30:22;4.40;;;3.22;;
19260;SDS011;9764;48.114;11.670;2023-06-04T11:32:59;6.35;;;3.58;;
19260;SDS011;9764;48.114;11.670;2023-06-04T11:35:29;5.35;;;3.03;;
19260;SDS011;9764;48.114;11.670;2023-06-04T11:37:58;3.65;;;3.08;;
19260;SDS011;9764;48.114;11.670;2023-06-04T11:40:26;3.53;;;3.22;;
19260;SDS011;9764;48.114;11.670;2023-06-04T11:42:55;3.78;;;3.10;;
19260;SDS011;9764;48.114;11.670;2023-06-04T11:45:24;3.92;;;3.03;;
19260;SDS011;9764;48.114;11.670;2023-06-04T11:47:56;3.17;;;2.88;;
19260;SDS011;9764;48.114;11.670;2023-06-04T11:50:26;3.67;;;3.10;;
19260;SDS011;9764;48.114;11.670;2023-06-04T11:52:57;3.45;;;2.90;;
19260;SDS011;9764;48.114;11.670;2023-06-04T11:55:27;4.18;;;3.08;;
19260;SDS011;9764;48.114;11.670;2023-06-04T11:57:55;3.35;;;2.97;;
19260;SDS011;9764;48.114;11.670;2023-06-04T12:00:24;3.63;;;3.20;;
19260;SDS011;9764;48.114;11.670;2023-06-04T12:02:53;4.50;;;3.25;;
19260;SDS011;9764;48.114;11.670;2023-06-04T12:05:23;3.65;;;3.25;;
19260;SDS011;9764;48.114;11.670;2023-06-04T12:08:05;3.30;;;3.00;;
19260;SDS011;9764;48.114;11.670;2023-06-04T12:10:38;3.75;;;3.03;;
19260;SDS011;9764;48.114;11.670;2023-06-04T12:13:08;3.30;;;3.00;;
19260;SDS011;9764;48.114;11.670;2023-06-04T12:15:37;3.65;;;2.80;;
19260;SDS011;9764;48.114;11.670;2023-06-04T12:18:06;3.35;;;3.00;;
19260;SDS011;9764;48.114;11.670;2023-06-04T12:20:36;4.40;;;3.00;;
19260;SDS011;9764;48.114;11.670;2023-06-04T12:23:07;4.97;;;3.22;;
19260;SDS011;9764;48.114;11.670;2023-06-04T12:25:36;3.50;;;3.20;;
19260;SDS011;9764;48.114;11.670;2023-06-04T12:28:05;4.05;;;3.28;;
19260;SDS011;9764;48.114;11.670;2023-06-04T12:30:44;3.65;;;3.25;;
19260;SDS011;9764;48.114;11.670;2023-06-04T12:33:12;4.40;;;3.58;;
19260;SDS011;9764;48.114;11.670;2023-06-04T12:35:41;4.05;;;3.42;;
19260;SDS011;9764;48.114;11.670;2023-06-04T12:38:10;5.18;;;3.33;;
19260;SDS011;9764;48.114;11.670;2023-06-04T12:40:39;3.83;;;3.28;;
19260;SDS011;9764;48.114;11.670;2023-06-04T12:43:07;3.63;;;3.30;;
19260;SDS011;9764;48.114;11.670;2023-06-04T12:45:35;2.88;;;2.67;;
19260;SDS011;9764;48.114;11.670;2023-06-04T12:48:04;4.05;;;3.28;;
19260;SDS011;9764;48.114;11.670;2023-06-04T12:50:32;4.32;;;3.28;;
19260;SDS011;9764;48.114;11.670;2023-06-04T12:53:01;5.47;;;3.22;;
19260;SDS011;9764;48.114;11.670;2023-06-04T12:55:31;3.78;;;3.20;;
19260;SDS011;9764;48.114;11.670;2023-06-04T12:57:59;4.25;;;3.75;;
19260;SDS011;9764;48.114;11.670;2023-06-04T13:00:27;5.82;;;3.63;;
19260;SDS011;9764;48.114;11.670;2023-06-04T13:02:56;5.40;;;3.35;;
19260;SDS011;9764;48.114;11.670;2023-06-04T13:05:24;4.30;;;3.03;;
19260;SDS011;9764;48.114;11.670;2023-06-04T13:07:53;3.83;;;3.22;;
19260;SDS011;9764;48.114;11.670;2023-06-04T13:10:21;4.88;;;3.45;;
19260;SDS011;9764;48.114;11.670;2023-06-04T13:12:51;4.57;;;3.78;;
19260;SDS011;9764;48.114;11.670;2023-06-04T13:15:19;6.70;;;3.58;;
19260;SDS011;9764;48.114;11.670;2023-06-04T13:17:48;4.00;;;3.53;;
19260;SDS011;9764;48.114;11.670;2023-06-04T13:20:17;5.65;;;3.97;;
19260;SDS011;9764;48.114;11.670;2023-06-04T13:22:45;3.67;;;3.38;;
19260;SDS011;9764;48.114;11.670;2023-06-04T13:25:13;4.43;;;3.30;;
19260;SDS011;9764;48.114;11.670;2023-06-04T13:27:42;4.63;;;3.67;;
19260;SDS011;9764;48.114;11.670;2023-06-04T13:30:13;3.70;;;3.38;;
19260;SDS011;9764;48.114;11.670;2023-06-04T13:32:42;4.10;;;3.13;;
19260;SDS011;9764;48.114;11.670;2023-06-04T13:35:10;3.95;;;3.50;;
19260;SDS011;9764;48.114;11.670;2023-06-04T13:37:38;3.42;;;3.10;;
19260;SDS011;9764;48.114;11.670;2023-06-04T13:40:07;3.42;;;3.13;;
19260;SDS011;9764;48.114;11.670;2023-06-04T13:42:36;4.40;;;3.25;;
19260;SDS011;9764;48.114;11.670;2023-06-04T13:45:06;4.18;;;3.78;;
19260;SDS011;9764;48.114;11.670;2023-06-04T13:47:36;3.55;;;3.25;;
19260;SDS011;9764;48.114;11.670;2023-06-04T13:50:05;3.78;;;3.40;;
19260;SDS011;9764;48.114;11.670;2023-06-04T13:52:34;3.88;;;3.40;;
19260;SDS011;9764;48.114;11.670;2023-06-04T13:55:03;3.97;;;3.58;;
19260;SDS011;9764;48.114;11.670;2023-06-04T13:57:31;3.95;;;3.47;;
19260;SDS011;9764;48.114;11.670;2023-06-04T14:00:00;3.35;;;3.05;;
19260;SDS011;9764;48.114;11.670;2023-06-04T14:02:29;3.78;;;3.38;;
19260;SDS011;9764;48.114;11.670;2023-06-04T14:04:59;3.60;;;3.30;;
19260;SDS011;9764;48.114;11.670;2023-06-04T14:07:27;3.97;;;3.58;;
19260;SDS011;9764;48.114;11.670;2023-06-04T14:09:56;5.00;;;3.60;;
19260;SDS011;9764;48.114;11.670;2023-06-04T14:12:24;4.60;;;3.40;;
19260;SDS011;9764;48.114;11.670;2023-06-04T14:14:52;5.85;;;3.90;;
19260;SDS011;9764;48.114;11.670;2023-06-04T14:17:21;4.43;;;3.72;;
19260;SDS011;9764;48.114;11.670;2023-06-04T14:19:49;3.97;;;3.40;;
19260;SDS011;9764;48.114;11.670;2023-06-04T14:22:19;5.97;;;3.53;;
19260;SDS011;9764;48.114;11.670;2023-06-04T14:24:47;4.70;;;3.42;;
19260;SDS011;9764;48.114;11.670;2023-06-04T14:27:16;3.45;;;3.15;;
19260;SDS011;9764;48.114;11.670;2023-06-04T14:29:44;4.22;;;3.10;;
19260;SDS011;9764;48.114;11.670;2023-06-04T14:32:12;3.65;;;3.25;;
19260;SDS011;9764;48.114;11.670;2023-06-04T14:34:41;3.47;;;3.17;;
19260;SDS011;9764;48.114;11.670;2023-06-04T14:37:09;5.95;;;3.38;;
19260;SDS011;9764;48.114;11.670;2023-06-04T14:39:38;3.80;;;3.35;;
19260;SDS011;9764;48.114;11.670;2023-06-04T14:42:07;4.20;;;2.90;;
19260;SDS011;9764;48.114;11.670;2023-06-04T14:44:35;4.65;;;3.70;;
19260;SDS011;9764;48.114;11.670;2023-06-04T14:47:05;4.72;;;3.35;;
19260;SDS011;9764;48.114;11.670;2023-06-04T14:49:33;4.80;;;3.50;;
19260;SDS011;9764;48.114;11.670;2023-06-04T14:52:03;4.53;;;3.63;;
19260;SDS011;9764;48.114;11.670;2023-06-04T14:54:32;4.13;;;3.60;;
19260;SDS011;9764;48.114;11.670;2023-06-04T14:57:02;5.43;;;3.30;;
19260;SDS011;9764;48.114;11.670;2023-06-04T14:59:31;3.70;;;3.15;;
19260;SDS011;9764;48.114;11.670;2023-06-04T15:02:00;4.30;;;3.38;;
19260;SDS011;9764;48.114;11.670;2023-06-04T15:04:29;3.25;;;3.03;;